Time;durP1;ratioP1;P1;durP2;ratioP2;P2;SDS_P1;SDS_P2;PMS_P1;PMS_P2;Temp;Humidity;BMP_temperature;BMP_pressure;BME280_temperature;BME280_humidity;BME280_pressure;Samples;Min_cycle;Max_cycle;Signal;HPM_P1;HPM_P2
2022/12/06 00:00:21;;;;;;;27.80;10.73;;;;;;;;;;21089649;28;20135;-60
2022/12/06 00:10:24;;;;;;;20.27;9.10;;;;;;;;;;21087306;28;20056;-65
2022/12/06 00:20:26;;;;;;;19.05;8.98;;;;;;;;;;21087399;28;20134;-60
2022/12/06 00:30:28;;;;;;;16.55;8.50;;;;;;;;;;21087694;28;20052;-60
2022/12/06 00:40:30;;;;;;;15.90;8.75;;;;;;;;;;21087317;28;20098;-60
2022/12/06 00:50:32;;;;;;;17.05;9.70;;;;;;;;;;21086009;28;20048;-63
2022/12/06 01:00:34;;;;;;;22.42;9.85;;;;;;;;;;21084470;28;20134;-60
2022/12/06 01:10:37;;;;;;;18.10;9.32;;;;;;;;;;21083919;28;20055;-61
2022/12/06 01:20:39;;;;;;;21.70;9.35;;;;;;;;;;21083483;28;20052;-60
2022/12/06 01:30:42;;;;;;;20.77;9.27;;;;;;;;;;21082350;28;20161;-60
2022/12/06 01:40:45;;;;;;;18.27;9.82;;;;;;;;;;21082029;28;20193;-61
2022/12/06 01:50:48;;;;;;;23.90;10.10;;;;;;;;;;21082323;28;20106;-61
2022/12/06 02:00:51;;;;;;;19.88;9.90;;;;;;;;;;21079986;28;20097;-61
2022/12/06 02:10:54;;;;;;;18.85;9.73;;;;;;;;;;21079604;28;20491;-61
2022/12/06 02:21:12;;;;;;;19.88;9.18;;;;;;;;;;21080221;28;20048;-61
2022/12/06 02:31:23;;;;;;;26.88;9.13;;;;;;;;;;21078464;28;20052;-60
2022/12/06 02:41:29;;;;;;;20.77;9.45;;;;;;;;;;21093986;28;20400;-61
2022/12/06 02:51:35;;;;;;;28.75;9.70;;;;;;;;;;21078316;28;20083;-60
2022/12/06 03:01:48;;;;;;;16.25;8.50;;;;;;;;;;21094161;28;20056;-61
2022/12/06 03:11:56;;;;;;;21.02;9.30;;;;;;;;;;21094349;28;20058;-60
2022/12/06 03:22:03;;;;;;;17.02;8.15;;;;;;;;;;21092497;28;20173;-60
2022/12/06 03:32:07;;;;;;;15.77;8.35;;;;;;;;;;21073866;28;20445;-61
2022/12/06 03:42:12;;;;;;;19.92;8.95;;;;;;;;;;21090832;28;20040;-60
2022/12/06 03:52:16;;;;;;;19.88;9.23;;;;;;;;;;21089537;28;20048;-60
2022/12/06 04:02:18;;;;;;;20.55;8.82;;;;;;;;;;21090193;28;20442;-61
2022/12/06 04:23:04;;;;;;;20.80;9.00;;;;;;;;;;21087830;28;20059;-59
2022/12/06 04:43:43;;;;;;;21.17;8.85;;;;;;;;;;21087371;28;20122;-60
2022/12/06 04:53:45;;;;;;;19.35;8.75;;;;;;;;;;21067218;28;20097;-60
2022/12/06 05:03:48;;;;;;;18.75;10.32;;;;;;;;;;21084306;28;20052;-61
2022/12/06 05:13:50;;;;;;;16.55;9.07;;;;;;;;;;21084114;28;20472;-61
2022/12/06 05:23:54;;;;;;;19.13;9.18;;;;;;;;;;21083752;28;20102;-60
2022/12/06 05:33:56;;;;;;;17.10;9.15;;;;;;;;;;21081967;28;20492;-60
2022/12/06 05:43:58;;;;;;;18.50;9.23;;;;;;;;;;21081352;28;20050;-60
2022/12/06 05:54:03;;;;;;;19.73;10.43;;;;;;;;;;21081315;28;20152;-62
2022/12/06 06:04:06;;;;;;;19.70;10.35;;;;;;;;;;21079831;28;20044;-60
2022/12/06 06:14:08;;;;;;;18.48;9.93;;;;;;;;;;21078804;28;20495;-60
2022/12/06 06:24:10;;;;;;;19.75;10.90;;;;;;;;;;21079611;28;20472;-59
2022/12/06 06:34:12;;;;;;;16.17;9.15;;;;;;;;;;21078096;28;20098;-60
2022/12/06 06:44:15;;;;;;;16.75;9.65;;;;;;;;;;21078711;28;20040;-61
2022/12/06 06:54:17;;;;;;;18.80;10.23;;;;;;;;;;21078385;28;20130;-60
2022/12/06 07:04:19;;;;;;;22.50;9.85;;;;;;;;;;21078080;28;20407;-59
2022/12/06 07:14:21;;;;;;;21.02;10.82;;;;;;;;;;21076559;28;20571;-62
2022/12/06 07:24:23;;;;;;;17.40;9.95;;;;;;;;;;21085220;28;20071;-63
2022/12/06 07:34:25;;;;;;;18.05;10.50;;;;;;;;;;21092143;28;20066;-60
2022/12/06 07:55:01;;;;;;;19.98;10.63;;;;;;;;;;20833316;28;20057;-61
2022/12/06 08:05:04;;;;;;;18.20;10.43;;;;;;;;;;20831968;28;20501;-61
2022/12/06 08:15:11;;;;;;;18.35;10.90;;;;;;;;;;20831141;28;20136;-61
2022/12/06 08:25:13;;;;;;;19.70;9.98;;;;;;;;;;20920085;28;20048;-60
2022/12/06 08:35:15;;;;;;;18.30;9.48;;;;;;;;;;21086186;28;20052;-61
2022/12/06 08:45:17;;;;;;;20.13;8.30;;;;;;;;;;21086553;28;20115;-61
2022/12/06 08:55:19;;;;;;;19.27;8.38;;;;;;;;;;21085107;28;20048;-61
2022/12/06 09:05:22;;;;;;;18.05;8.55;;;;;;;;;;21084214;28;20139;-61
2022/12/06 09:15:24;;;;;;;19.08;8.52;;;;;;;;;;21083865;28;20105;-61
2022/12/06 09:25:26;;;;;;;25.58;8.77;;;;;;;;;;21082574;28;20143;-61
2022/12/06 09:35:28;;;;;;;18.27;7.57;;;;;;;;;;21081065;28;20055;-61
2022/12/06 09:45:30;;;;;;;22.83;11.13;;;;;;;;;;21080172;28;20075;-61
2022/12/06 09:55:43;;;;;;;26.95;12.63;;;;;;;;;;21081315;28;20479;-61
2022/12/06 10:05:54;;;;;;;23.23;11.52;;;;;;;;;;21081399;28;20039;-61
2022/12/06 10:16:14;;;;;;;22.75;10.10;;;;;;;;;;21007651;28;20436;-61
2022/12/06 10:26:21;;;;;;;22.50;12.20;;;;;;;;;;20990304;28;20102;-60
2022/12/06 10:36:44;;;;;;;5.90;4.15;;;;;;;;;;20960765;28;20052;-61
2022/12/06 10:47:03;;;;;;;23.50;11.32;;;;;;;;;;20972287;28;20117;-62
2022/12/06 10:57:10;;;;;;;25.77;11.03;;;;;;;;;;20999561;28;20052;-60
2022/12/06 11:07:27;;;;;;;15.88;10.27;;;;;;;;;;21010612;28;20468;-60
2022/12/06 11:17:38;;;;;;;16.42;9.23;;;;;;;;;;21008729;28;20603;-63
2022/12/06 11:27:52;;;;;;;20.92;9.90;;;;;;;;;;21007998;28;20519;-64
2022/12/06 11:37:57;;;;;;;18.02;9.20;;;;;;;;;;21007814;28;20052;-62
2022/12/06 11:48:01;;;;;;;15.93;8.52;;;;;;;;;;20987926;28;20049;-61
2022/12/06 11:58:05;;;;;;;19.33;9.00;;;;;;;;;;21006282;28;20052;-61
2022/12/06 12:08:19;;;;;;;14.70;8.85;;;;;;;;;;21004700;28;20127;-62
2022/12/06 12:18:25;;;;;;;17.70;9.40;;;;;;;;;;21004448;28;20048;-61
2022/12/06 12:28:32;;;;;;;13.52;9.32;;;;;;;;;;21003833;28;20562;-61
2022/12/06 12:38:42;;;;;;;19.50;10.80;;;;;;;;;;21002328;28;20125;-60
2022/12/06 12:48:45;;;;;;;15.70;9.45;;;;;;;;;;21001865;28;20119;-61
2022/12/06 12:58:49;;;;;;;19.15;10.90;;;;;;;;;;21000872;28;20064;-61
2022/12/06 13:08:53;;;;;;;25.13;12.18;;;;;;;;;;21000187;28;20128;-61
2022/12/06 13:18:57;;;;;;;22.13;12.25;;;;;;;;;;20999174;28;20091;-61
2022/12/06 13:29:02;;;;;;;20.65;11.95;;;;;;;;;;20999240;28;20053;-61
2022/12/06 13:39:24;;;;;;;23.30;13.55;;;;;;;;;;20997833;28;20439;-60
2022/12/06 13:49:41;;;;;;;22.65;12.27;;;;;;;;;;20998461;28;20485;-61
2022/12/06 13:59:44;;;;;;;29.77;13.18;;;;;;;;;;20997718;28;20514;-62
2022/12/06 14:09:48;;;;;;;21.23;12.23;;;;;;;;;;20996455;28;20067;-60
2022/12/06 14:19:51;;;;;;;23.17;12.90;;;;;;;;;;20995592;28;20548;-61
2022/12/06 14:30:11;;;;;;;22.50;13.38;;;;;;;;;;20993955;28;20049;-61
2022/12/06 14:40:24;;;;;;;23.98;13.27;;;;;;;;;;20994548;28;20400;-62
2022/12/06 14:50:28;;;;;;;26.00;13.57;;;;;;;;;;20994598;28;20378;-62
2022/12/06 15:00:33;;;;;;;28.40;13.23;;;;;;;;;;20994632;28;20113;-62
2022/12/06 15:10:35;;;;;;;30.00;14.00;;;;;;;;;;20993962;28;20492;-61
2022/12/06 15:20:37;;;;;;;24.27;13.15;;;;;;;;;;20993189;28;20063;-60
2022/12/06 15:30:39;;;;;;;26.00;14.00;;;;;;;;;;20993113;28;20052;-61
2022/12/06 15:40:42;;;;;;;21.05;13.38;;;;;;;;;;20976841;28;20504;-62
2022/12/06 15:50:45;;;;;;;26.10;13.55;;;;;;;;;;21006843;28;20045;-60
2022/12/06 16:00:46;;;;;;;23.02;14.00;;;;;;;;;;20976432;28;20085;-61
2022/12/06 16:10:49;;;;;;;24.98;13.48;;;;;;;;;;20922395;28;20047;-62
2022/12/06 16:20:52;;;;;;;24.85;12.80;;;;;;;;;;20922119;28;20095;-62
2022/12/06 16:30:54;;;;;;;23.85;13.20;;;;;;;;;;20920535;28;20053;-61
2022/12/06 16:41:05;;;;;;;26.98;15.55;;;;;;;;;;20920760;28;20071;-61
2022/12/06 16:51:07;;;;;;;48.35;25.45;;;;;;;;;;20919089;28;20056;-61
2022/12/06 17:01:18;;;;;;;24.42;15.48;;;;;;;;;;20917676;28;20408;-62
2022/12/06 17:21:47;;;;;;;32.03;16.60;;;;;;;;;;20917426;28;20053;-62
2022/12/06 17:31:50;;;;;;;32.08;15.55;;;;;;;;;;20916303;28;20057;-60
2022/12/06 17:52:13;;;;;;;29.25;17.13;;;;;;;;;;20915498;28;20055;-65
2022/12/06 18:02:17;;;;;;;29.33;16.48;;;;;;;;;;20913796;28;20049;-63
2022/12/06 18:12:19;;;;;;;28.70;16.00;;;;;;;;;;20913731;28;20049;-64
2022/12/06 18:22:22;;;;;;;27.00;16.13;;;;;;;;;;20913015;28;20045;-64
2022/12/06 18:32:24;;;;;;;30.75;16.08;;;;;;;;;;20912287;28;20102;-66
2022/12/06 18:42:26;;;;;;;28.48;15.63;;;;;;;;;;20911242;28;20540;-63
2022/12/06 18:52:28;;;;;;;29.83;16.80;;;;;;;;;;20913633;28;20481;-63
2022/12/06 19:02:30;;;;;;;35.38;18.75;;;;;;;;;;20913330;28;20168;-66
2022/12/06 19:12:32;;;;;;;29.52;14.55;;;;;;;;;;20912567;28;20085;-62
2022/12/06 19:22:35;;;;;;;29.23;15.15;;;;;;;;;;20921026;28;20045;-66
2022/12/06 19:32:37;;;;;;;30.10;16.50;;;;;;;;;;20925447;28;20413;-61
2022/12/06 19:53:00;;;;;;;33.38;17.90;;;;;;;;;;20924433;28;20516;-67
2022/12/06 20:03:02;;;;;;;28.60;16.10;;;;;;;;;;20923726;28;20056;-66
2022/12/06 20:13:07;;;;;;;32.17;17.80;;;;;;;;;;20922544;28;20045;-61
2022/12/06 20:23:10;;;;;;;34.08;17.77;;;;;;;;;;20921780;28;20078;-61
2022/12/06 20:33:12;;;;;;;35.42;18.27;;;;;;;;;;20918470;28;20053;-62
2022/12/06 20:43:13;;;;;;;28.55;16.88;;;;;;;;;;20920156;28;20102;-63
2022/12/06 20:53:15;;;;;;;35.05;17.98;;;;;;;;;;20919430;28;20059;-62
2022/12/06 21:03:19;;;;;;;36.92;18.98;;;;;;;;;;20919381;28;20044;-62
2022/12/06 21:13:21;;;;;;;37.22;20.80;;;;;;;;;;20917233;28;20088;-61
2022/12/06 21:23:24;;;;;;;42.75;24.77;;;;;;;;;;20917467;28;20477;-61
2022/12/06 21:33:27;;;;;;;41.15;23.20;;;;;;;;;;20916408;28;20438;-64
2022/12/06 21:43:29;;;;;;;39.20;21.90;;;;;;;;;;20914958;28;20073;-64
2022/12/06 21:53:31;;;;;;;36.45;20.67;;;;;;;;;;20914355;28;20386;-64
2022/12/06 22:03:33;;;;;;;38.60;20.45;;;;;;;;;;20912533;28;20041;-61
2022/12/06 22:13:36;;;;;;;37.95;21.13;;;;;;;;;;20913345;28;20617;-62
2022/12/06 22:23:39;;;;;;;39.50;22.20;;;;;;;;;;20912732;28;20051;-62
2022/12/06 22:33:42;;;;;;;32.28;19.63;;;;;;;;;;20912207;28;20524;-61
2022/12/06 22:43:44;;;;;;;32.63;19.35;;;;;;;;;;20912534;28;20055;-62
2022/12/06 22:53:48;;;;;;;44.35;24.55;;;;;;;;;;20918110;28;20056;-62
2022/12/06 23:03:51;;;;;;;37.83;22.95;;;;;;;;;;20928395;28;20132;-61
2022/12/06 23:13:54;;;;;;;34.80;21.13;;;;;;;;;;20928142;28;20469;-61
2022/12/06 23:24:05;;;;;;;38.63;21.77;;;;;;;;;;20926459;28;20160;-65
2022/12/06 23:34:19;;;;;;;32.83;20.95;;;;;;;;;;20925772;28;20048;-61
2022/12/06 23:44:24;;;;;;;38.58;19.70;;;;;;;;;;20925577;28;20563;-66
2022/12/06 23:54:31;;;;;;;34.03;19.00;;;;;;;;;;20924440;28;20060;-67
